Time;durP1;ratioP1;P1;durP2;ratioP2;P2;SDS_P1;SDS_P2;PMS_P1;PMS_P2;Temp;Humidity;BMP_temperature;BMP_pressure;BME280_temperature;BME280_humidity;BME280_pressure;Samples;Min_cycle;Max_cycle;Signal;HPM_P1;HPM_P2
2024/02/18 00:02:17;;;;;;;12.53;5.60;;;;;;;5.41;100.00;102513.21;5163896;55;1136616;-81
2024/02/18 00:07:23;;;;;;;15.90;5.77;;;;;;;5.41;100.00;102513.21;5132470;56;1138548;-81
2024/02/18 00:12:29;;;;;;;11.07;4.53;;;;;;;5.43;100.00;102508.80;5152962;56;1138489;-81
2024/02/18 00:17:34;;;;;;;3.60;2.20;;;;;;;5.37;100.00;102511.55;5088553;55;1138329;-82
2024/02/18 00:22:40;;;;;;;3.63;2.10;;;;;;;5.28;100.00;102508.72;5038814;55;1137134;-81
2024/02/18 00:27:46;;;;;;;7.07;2.83;;;;;;;5.18;100.00;102514.64;5113795;55;1136672;-81
2024/02/18 00:32:52;;;;;;;6.37;3.27;;;;;;;5.16;100.00;102512.95;5229771;55;1136691;-81
2024/02/18 00:37:57;;;;;;;3.93;2.30;;;;;;;5.16;100.00;102516.44;5210074;55;1138799;-81
2024/02/18 00:43:03;;;;;;;3.03;1.47;;;;;;;5.18;100.00;102515.09;5164525;55;1138775;-81
2024/02/18 00:48:09;;;;;;;1.40;1.24;;;;;;;5.19;100.00;102511.57;5153027;55;1136553;-81
2024/02/18 00:53:14;;;;;;;4.78;1.40;;;;;;;5.18;100.00;102511.16;5157085;55;1136588;-81
2024/02/18 00:58:21;;;;;;;2.03;1.53;;;;;;;5.12;100.00;102513.91;5133558;56;1136305;-81
2024/02/18 01:03:26;;;;;;;3.40;1.23;;;;;;;5.09;100.00;102504.34;5159704;55;1136588;-81
2024/02/18 01:08:32;;;;;;;3.47;1.13;;;;;;;5.06;100.00;102507.48;5211491;55;1136331;-81
2024/02/18 01:13:38;;;;;;;2.73;0.93;;;;;;;5.03;100.00;102497.95;5153228;55;1136824;-81
2024/02/18 01:18:45;;;;;;;1.12;0.95;;;;;;;5.02;100.00;102515.03;5125352;55;1136686;-81
2024/02/18 01:23:51;;;;;;;3.73;1.17;;;;;;;5.02;100.00;102508.47;5193433;55;1137151;-81
2024/02/18 01:28:57;;;;;;;1.40;1.20;;;;;;;4.99;100.00;102502.84;5132693;56;1136559;-81
2024/02/18 01:34:03;;;;;;;3.00;1.40;;;;;;;4.97;100.00;102508.56;5192807;55;1136800;-81
2024/02/18 01:39:09;;;;;;;2.95;1.60;;;;;;;4.93;100.00;102516.08;5240891;55;1136744;-81
2024/02/18 01:44:14;;;;;;;1.72;1.50;;;;;;;4.89;100.00;102511.79;5212585;55;1136702;-82
2024/02/18 01:49:21;;;;;;;1.90;1.70;;;;;;;4.86;100.00;102514.06;5210966;55;1136913;-81
2024/02/18 01:54:33;;;;;;;2.93;1.23;;;;;;;4.84;100.00;102521.09;5205743;55;1136635;-81
2024/02/18 01:59:35;;;;;;;1.57;1.13;;;;;;;4.86;100.00;102517.13;5141893;55;1136337;-81
2024/02/18 02:04:41;;;;;;;1.83;1.17;;;;;;;4.89;100.00;102522.27;5147227;55;1138844;-81
2024/02/18 02:09:47;;;;;;;1.20;0.70;;;;;;;4.86;100.00;102530.23;5123770;55;1136850;-81
2024/02/18 02:14:53;;;;;;;0.83;0.83;;;;;;;4.78;100.00;102524.27;5075292;55;1136350;-81
2024/02/18 02:19:59;;;;;;;1.23;1.10;;;;;;;4.84;100.00;102517.16;5084123;55;1136669;-81
2024/02/18 02:25:07;;;;;;;2.77;1.17;;;;;;;4.85;100.00;102516.27;5134343;55;1136451;-81
2024/02/18 02:30:13;;;;;;;4.17;1.23;;;;;;;4.86;100.00;102516.68;5154207;55;1142065;-81
2024/02/18 02:35:18;;;;;;;3.80;2.52;;;;;;;4.86;100.00;102516.68;5134806;55;1136727;-81
2024/02/18 02:40:25;;;;;;;38.00;11.70;;;;;;;4.85;100.00;102516.27;5133980;55;1136481;-81
2024/02/18 02:45:31;;;;;;;48.10;13.78;;;;;;;4.86;100.00;102510.57;5131653;55;1141054;-81
2024/02/18 02:50:37;;;;;;;39.90;13.53;;;;;;;4.90;100.00;102518.76;5111346;56;1140624;-81
2024/02/18 02:55:43;;;;;;;9.77;3.97;;;;;;;4.89;100.00;102520.97;5108515;56;1140920;-81
2024/02/18 03:00:48;;;;;;;3.02;2.52;;;;;;;4.77;100.00;102522.55;5099239;56;1136538;-81
2024/02/18 03:05:54;;;;;;;3.57;2.30;;;;;;;4.60;100.00;102530.31;5126768;55;1136645;-81
2024/02/18 03:11:00;;;;;;;1.37;0.93;;;;;;;4.55;100.00;102529.57;5109038;56;1136519;-81
2024/02/18 03:16:06;;;;;;;1.70;1.03;;;;;;;4.55;100.00;102532.19;5068204;56;1136180;-81
2024/02/18 03:21:12;;;;;;;3.93;2.47;;;;;;;4.50;100.00;102529.23;5124199;56;1136863;-81
2024/02/18 03:26:17;;;;;;;1.00;1.00;;;;;;;4.48;100.00;102532.33;5107921;56;1137022;-81
2024/02/18 03:31:23;;;;;;;1.20;1.07;;;;;;;4.48;100.00;102526.64;5106445;56;1138938;-81
2024/02/18 03:36:31;;;;;;;1.70;1.10;;;;;;;4.52;100.00;102521.77;5128064;56;1138855;-84
2024/02/18 03:41:37;;;;;;;2.70;1.50;;;;;;;4.62;100.00;102530.73;5105716;56;1136574;-81
2024/02/18 03:46:43;;;;;;;1.50;1.30;;;;;;;4.64;100.00;102527.64;5084770;56;1136682;-81
2024/02/18 03:51:49;;;;;;;2.42;2.00;;;;;;;4.74;100.00;102517.36;5031635;56;1136665;-81
2024/02/18 03:56:55;;;;;;;19.10;6.40;;;;;;;4.73;100.00;102516.53;5035674;57;1136938;-81
2024/02/18 04:02:00;;;;;;;27.62;7.80;;;;;;;4.78;100.00;102510.72;5064924;56;1138819;-81
2024/02/18 04:07:06;;;;;;;45.83;12.87;;;;;;;4.82;100.00;102499.28;5098610;55;1138833;-81
2024/02/18 04:12:12;;;;;;;16.53;4.67;;;;;;;4.81;100.00;102507.17;5116930;56;1140912;-81
2024/02/18 04:17:17;;;;;;;4.33;1.82;;;;;;;4.74;100.00;102510.81;5095949;56;1138777;-81
2024/02/18 04:22:23;;;;;;;2.53;1.80;;;;;;;4.63;100.00;102518.05;5097229;56;1136601;-81
2024/02/18 04:27:28;;;;;;;1.77;1.17;;;;;;;4.59;100.00;102526.41;5119029;56;1138511;-81
2024/02/18 04:32:34;;;;;;;2.10;1.40;;;;;;;4.48;100.00;102531.89;5158271;55;1136754;-81
2024/02/18 04:37:39;;;;;;;2.30;1.30;;;;;;;4.54;100.00;102532.22;5185620;55;1136697;-81
2024/02/18 04:42:45;;;;;;;3.03;1.30;;;;;;;4.62;100.00;102532.05;5114547;55;1136685;-81
2024/02/18 04:47:51;;;;;;;56.13;13.33;;;;;;;4.63;100.00;102540.33;5034595;56;1136459;-81
2024/02/18 04:52:56;;;;;;;55.90;13.83;;;;;;;4.58;100.00;102529.48;5015642;55;1140628;-81
2024/02/18 04:58:02;;;;;;;21.37;6.17;;;;;;;4.57;100.00;102540.89;5106445;55;1140831;-81
2024/02/18 05:03:07;;;;;;;3.03;1.80;;;;;;;4.53;100.00;102529.18;5118946;55;1138825;-81
2024/02/18 05:08:13;;;;;;;2.90;1.47;;;;;;;4.39;100.00;102540.39;5134084;55;1136797;-81
2024/02/18 05:13:19;;;;;;;2.10;0.93;;;;;;;4.32;100.00;102549.24;5210571;55;1136758;-81
2024/02/18 05:18:25;;;;;;;1.00;1.00;;;;;;;4.22;100.00;102571.69;5230124;55;1136647;-81
2024/02/18 05:23:32;;;;;;;1.03;0.93;;;;;;;4.20;100.00;102562.13;5205779;55;1138710;-81
2024/02/18 05:28:38;;;;;;;0.90;0.90;;;;;;;4.16;100.00;102553.45;5206207;55;1136871;-81
2024/02/18 05:33:43;;;;;;;2.47;1.00;;;;;;;4.20;100.00;102551.20;5209555;55;1136792;-81
2024/02/18 05:38:49;;;;;;;1.40;1.07;;;;;;;4.20;100.00;102543.80;5230378;55;1136577;-80
2024/02/18 05:43:55;;;;;;;2.17;0.83;;;;;;;4.16;100.00;102544.30;5152815;55;1136524;-81
2024/02/18 05:49:00;;;;;;;1.90;1.10;;;;;;;4.27;100.00;102541.94;5209693;55;1136907;-81
2024/02/18 05:54:06;;;;;;;2.63;0.83;;;;;;;4.26;100.00;102552.86;5190573;55;1136377;-81
2024/02/18 05:59:11;;;;;;;1.90;1.30;;;;;;;4.22;100.00;102554.67;5184312;55;1136456;-81
2024/02/18 06:04:17;;;;;;;3.10;2.23;;;;;;;4.19;100.00;102559.95;5027841;56;1136755;-81
2024/02/18 06:09:23;;;;;;;6.13;3.37;;;;;;;4.14;100.00;102560.48;5004655;57;1136638;-81
2024/02/18 06:14:29;;;;;;;2.20;1.50;;;;;;;4.11;100.00;102566.23;4963097;57;1136760;-81
2024/02/18 06:19:34;;;;;;;1.23;1.13;;;;;;;4.07;100.00;102570.66;4960839;57;1136649;-82
2024/02/18 06:24:40;;;;;;;1.83;1.23;;;;;;;4.12;100.00;102574.07;4957997;57;1136728;-82
2024/02/18 06:29:46;;;;;;;1.10;1.00;;;;;;;4.14;100.00;102580.11;4981024;57;1136423;-79
2024/02/18 06:34:51;;;;;;;1.57;1.47;;;;;;;4.12;100.00;102579.31;4962982;57;1136460;-79
2024/02/18 06:39:57;;;;;;;2.47;1.13;;;;;;;4.07;100.00;102579.83;5034218;56;1136862;-78
2024/02/18 06:45:03;;;;;;;1.70;1.60;;;;;;;4.06;100.00;102586.39;5110474;55;1136576;-79
2024/02/18 06:50:08;;;;;;;4.20;1.47;;;;;;;4.08;100.00;102572.83;5058594;56;1136620;-80
2024/02/18 06:55:14;;;;;;;1.80;1.70;;;;;;;4.09;100.00;102570.64;5074469;56;1136743;-80
2024/02/18 07:00:20;;;;;;;1.47;1.07;;;;;;;4.11;100.00;102572.78;5046472;56;1136865;-80
2024/02/18 07:05:26;;;;;;;3.40;1.30;;;;;;;4.14;100.00;102570.09;5120080;55;1136567;-80
2024/02/18 07:10:32;;;;;;;1.30;1.10;;;;;;;4.17;100.00;102577.89;4894299;57;1136744;-79
2024/02/18 07:15:37;;;;;;;1.87;1.50;;;;;;;4.14;100.00;102575.33;5134780;56;1136597;-80
2024/02/18 07:20:43;;;;;;;3.50;1.80;;;;;;;4.20;100.00;102576.09;5168843;55;1136612;-79
2024/02/18 07:25:53;;;;;;;6.55;5.12;;;;;;;4.24;100.00;102580.39;5175185;55;1136569;-78
2024/02/18 07:30:59;;;;;;;5.63;1.70;;;;;;;4.21;100.00;102583.50;5142168;56;1136927;-79
2024/02/18 07:36:05;;;;;;;6.83;3.93;;;;;;;4.21;100.00;102580.44;5153281;56;1136463;-79
2024/02/18 07:41:10;;;;;;;7.60;5.07;;;;;;;4.21;100.00;102591.36;5123728;56;1136895;-79
2024/02/18 07:46:16;;;;;;;5.45;4.95;;;;;;;4.22;100.00;102595.70;5009768;56;1136649;-79
2024/02/18 07:51:21;;;;;;;7.60;3.45;;;;;;;4.20;100.00;102592.25;5132781;56;1136510;-78
2024/02/18 07:56:27;;;;;;;6.10;4.70;;;;;;;4.04;100.00;102599.95;5114773;56;1136577;-79
2024/02/18 08:01:32;;;;;;;2.77;1.80;;;;;;;3.95;100.00;102590.96;5144215;55;1136487;-78
2024/02/18 08:06:38;;;;;;;15.63;7.17;;;;;;;3.96;100.00;102583.09;5210862;55;1136889;-77
2024/02/18 08:11:44;;;;;;;1.30;1.20;;;;;;;3.96;100.00;102576.54;5193760;55;1138692;-78
2024/02/18 08:16:50;;;;;;;2.17;1.98;;;;;;;4.04;100.00;102562.86;5207093;55;1136674;-81
2024/02/18 08:21:55;;;;;;;4.33;2.70;;;;;;;4.12;100.00;102555.73;5262130;55;1137160;-79
2024/02/18 08:27:01;;;;;;;2.53;1.30;;;;;;;4.21;100.00;102562.55;5165225;55;1136562;-79
2024/02/18 08:32:07;;;;;;;15.27;7.83;;;;;;;4.25;100.00;102557.68;5128490;55;1136638;-79
2024/02/18 08:37:13;;;;;;;3.10;1.93;;;;;;;4.29;100.00;102550.16;5154804;55;1138959;-83
2024/02/18 08:42:19;;;;;;;4.40;1.65;;;;;;;4.31;100.00;102564.54;5144860;55;1136701;-79
2024/02/18 08:47:24;;;;;;;8.65;6.47;;;;;;;4.36;100.00;102554.41;5211175;55;1136432;-79
2024/02/18 08:52:30;;;;;;;3.60;3.23;;;;;;;4.43;100.00;102565.16;5216804;55;1136277;-81
2024/02/18 08:57:36;;;;;;;7.97;6.03;;;;;;;4.49;100.00;102558.95;5129346;56;1136281;-82
2024/02/18 09:02:41;;;;;;;5.57;4.07;;;;;;;4.48;100.00;102559.40;5068619;56;1136403;-77
2024/02/18 09:07:47;;;;;;;6.43;3.43;;;;;;;4.40;100.00;102556.08;5044081;57;1136857;-80
2024/02/18 09:13:00;;;;;;;1.43;1.20;;;;;;;4.39;100.00;102560.03;5051245;56;1136964;-80
2024/02/18 09:18:00;;;;;;;1.80;1.23;;;;;;;4.34;100.00;102550.08;5067663;55;1136609;-78
2024/02/18 09:23:06;;;;;;;3.23;2.40;;;;;;;4.30;100.00;102552.33;5070937;55;1136496;-80
2024/02/18 09:28:12;;;;;;;7.70;2.93;;;;;;;4.23;100.00;102549.85;5059113;56;1136687;-80
2024/02/18 09:33:20;;;;;;;3.00;2.10;;;;;;;4.28;100.00;102539.73;5045009;56;1136771;-76
2024/02/18 09:38:26;;;;;;;11.47;4.43;;;;;;;4.35;100.00;102537.41;5049493;56;1136786;-78
2024/02/18 09:43:42;;;;;;;2.67;2.35;;;;;;;4.42;100.00;102525.92;5113746;56;1138876;-83
2024/02/18 09:48:47;;;;;;;5.97;2.50;;;;;;;4.58;100.00;102526.03;5109810;55;1136819;-80
2024/02/18 09:53:55;;;;;;;3.35;2.05;;;;;;;4.64;100.00;102516.71;5185979;55;1136659;-83
2024/02/18 09:59:00;;;;;;;7.90;2.77;;;;;;;4.65;100.00;102515.81;5200090;56;1136417;-80
2024/02/18 10:04:06;;;;;;;6.60;3.53;;;;;;;4.67;100.00;102521.89;5064071;56;1136740;-82
2024/02/18 10:09:11;;;;;;;10.50;4.67;;;;;;;4.67;100.00;102513.17;5090727;56;1136502;-80
2024/02/18 10:14:28;;;;;;;26.60;6.58;;;;;;;4.74;100.00;102518.67;5064981;56;1138794;-82
2024/02/18 10:19:34;;;;;;;6.83;3.00;;;;;;;4.78;100.00;102509.86;5049529;56;1138375;-80
2024/02/18 10:24:39;;;;;;;5.13;2.97;;;;;;;4.80;100.00;102505.45;5049824;56;1136626;-81
2024/02/18 10:29:47;;;;;;;10.63;4.67;;;;;;;4.76;100.00;102499.85;5049811;56;1136626;-82
2024/02/18 10:34:53;;;;;;;11.30;7.63;;;;;;;4.75;100.00;102485.88;5052298;56;1138922;-80
2024/02/18 10:40:05;;;;;;;31.07;14.97;;;;;;;4.67;100.00;102464.68;5027330;56;1138571;-80
2024/02/18 10:45:13;;;;;;;26.53;14.03;;;;;;;4.73;100.00;102460.63;5142829;55;1140496;-79
2024/02/18 10:50:19;;;;;;;36.73;12.30;;;;;;;4.85;100.00;102451.17;5128706;56;1140752;-81
2024/02/18 10:55:32;;;;;;;5.00;2.03;;;;;;;4.87;100.00;102441.06;5110163;56;1140923;-80
2024/02/18 11:00:39;;;;;;;;;;;;;;;4.93;100.00;102433.48;5098626;56;1136560;-80
2024/02/18 11:05:45;;;;;;;24.65;9.10;;;;;;;4.93;100.00;102430.41;5049477;56;974056;-83
2024/02/18 11:10:51;;;;;;;13.20;5.23;;;;;;;4.90;100.00;102419.99;5131444;56;1136903;-80
2024/02/18 11:15:57;;;;;;;4.93;2.70;;;;;;;4.90;100.00;102409.95;5166381;55;1138968;-80
2024/02/18 11:21:04;;;;;;;41.03;14.40;;;;;;;4.94;100.00;102405.06;5188693;55;1136580;-79
2024/02/18 11:26:10;;;;;;;12.03;5.23;;;;;;;4.89;100.00;102399.05;5209132;56;1140654;-82
2024/02/18 11:31:30;;;;;;;13.00;4.17;;;;;;;4.92;100.00;102390.67;5166025;55;1138626;-82
2024/02/18 11:36:36;;;;;;;6.53;4.13;;;;;;;4.92;100.00;102390.67;5176529;55;1138860;-79
2024/02/18 11:41:42;;;;;;;7.67;3.70;;;;;;;4.89;100.00;102384.63;5196418;55;1136827;-82
2024/02/18 11:46:53;;;;;;;18.57;4.23;;;;;;;4.89;100.00;102384.63;5225901;55;1136663;-80
2024/02/18 11:51:58;;;;;;;7.80;3.60;;;;;;;4.98;100.00;102373.08;5210434;55;1138876;-78
2024/02/18 11:57:04;;;;;;;5.43;2.70;;;;;;;4.94;100.00;102371.84;5209936;55;1136399;-79
2024/02/18 12:02:09;;;;;;;1.97;1.83;;;;;;;5.01;100.00;102363.83;5168370;55;1136489;-78
2024/02/18 12:07:17;;;;;;;7.27;4.90;;;;;;;5.10;100.00;102351.78;5099736;56;1145896;-80
2024/02/18 12:12:22;;;;;;;12.77;5.27;;;;;;;5.07;100.00;102346.61;5047568;57;1136439;-82
2024/02/18 12:17:28;;;;;;;5.75;4.12;;;;;;;5.03;100.00;102335.36;5055450;57;1138627;-81
2024/02/18 12:22:33;;;;;;;6.97;5.07;;;;;;;5.02;100.00;102329.70;5027841;57;1136467;-81
2024/02/18 12:27:39;;;;;;;9.17;4.33;;;;;;;5.03;100.00;102332.74;5066878;55;1137077;-80
2024/02/18 12:32:46;;;;;;;13.32;8.18;;;;;;;5.04;100.00;102315.25;5110652;55;1136577;-82
2024/02/18 12:37:52;;;;;;;21.27;10.27;;;;;;;5.00;100.00;102309.66;5206036;55;1138760;-78
2024/02/18 12:43:19;;;;;;;9.53;6.60;;;;;;;4.96;100.00;102307.56;5120064;55;1140720;-81
2024/02/18 12:48:26;;;;;;;13.38;5.53;;;;;;;4.98;100.00;102315.39;5111623;55;1136832;-81
2024/02/18 12:53:31;;;;;;;39.80;17.73;;;;;;;5.05;100.00;102309.94;5132218;56;1138719;-79
2024/02/18 12:58:37;;;;;;;22.80;11.97;;;;;;;5.09;100.00;102309.41;5111572;56;1140629;-79
2024/02/18 13:03:46;;;;;;;9.77;6.67;;;;;;;5.07;100.00;102283.22;5113766;55;1140642;-80
2024/02/18 13:08:50;;;;;;;7.47;5.30;;;;;;;5.01;100.00;102272.91;5134942;55;1136837;-81
2024/02/18 13:13:58;;;;;;;36.33;14.93;;;;;;;5.01;100.00;102272.91;5154275;55;1136502;-77
2024/02/18 13:19:03;;;;;;;9.97;6.93;;;;;;;4.94;100.00;102260.41;5124267;55;1140952;-79
2024/02/18 13:24:09;;;;;;;18.50;9.77;;;;;;;4.95;100.00;102245.53;5142681;55;1136417;-77
2024/02/18 13:29:15;;;;;;;14.00;8.35;;;;;;;4.97;100.00;102244.19;5243717;55;1138585;-80
2024/02/18 13:34:21;;;;;;;10.03;6.65;;;;;;;4.96;100.00;102248.57;5185161;55;1148263;-79
2024/02/18 13:39:27;;;;;;;17.95;10.60;;;;;;;4.93;100.00;102215.88;5124365;56;1138574;-78
2024/02/18 13:44:32;;;;;;;17.83;10.87;;;;;;;4.94;100.00;102175.64;5217996;55;1140829;-78
2024/02/18 13:49:38;;;;;;;23.40;11.57;;;;;;;4.94;100.00;102175.64;5211010;55;1140812;-78
2024/02/18 13:54:43;;;;;;;10.93;7.50;;;;;;;4.94;100.00;102183.06;5210526;55;1140649;-77
2024/02/18 13:59:49;;;;;;;16.30;10.33;;;;;;;4.97;100.00;102189.98;5195970;55;1138654;-79
2024/02/18 14:04:54;;;;;;;20.87;11.73;;;;;;;5.00;100.00;102190.36;5105400;55;1140764;-81
2024/02/18 14:10:00;;;;;;;35.60;17.97;;;;;;;5.06;100.00;102180.54;5097692;55;1140899;-77
2024/02/18 14:15:09;;;;;;;35.60;20.63;;;;;;;5.15;100.00;102177.67;5145729;55;1140724;-78
2024/02/18 14:20:14;;;;;;;11.23;9.87;;;;;;;5.17;100.00;102168.45;5189786;55;1140950;-77
2024/02/18 14:25:22;;;;;;;14.77;10.47;;;;;;;5.21;100.00;102146.00;5079643;56;1138701;-77
2024/02/18 14:30:28;;;;;;;41.53;22.23;;;;;;;5.25;100.00;102131.91;5053411;55;1140844;-79
2024/02/18 14:35:37;;;;;;;12.33;9.85;;;;;;;5.35;100.00;102122.47;5133988;55;1141137;-80
2024/02/18 14:40:42;;;;;;;45.27;19.80;;;;;;;5.35;100.00;102123.77;5113772;55;1138654;-76
2024/02/18 14:45:48;;;;;;;36.70;19.60;;;;;;;5.37;100.00;102117.55;5098855;56;1140943;-77
2024/02/18 14:50:54;;;;;;;11.70;7.90;;;;;;;5.43;100.00;102117.38;5102903;56;1140906;-76
2024/02/18 14:56:00;;;;;;;31.90;17.83;;;;;;;5.50;100.00;102114.95;5123111;56;1138722;-78
2024/02/18 15:01:06;;;;;;;16.60;11.27;;;;;;;5.73;100.00;102095.01;5054378;56;1140569;-79
2024/02/18 15:06:12;;;;;;;27.73;16.20;;;;;;;5.69;100.00;102088.13;5103069;56;1140921;-78
2024/02/18 15:11:18;;;;;;;54.65;28.35;;;;;;;5.56;100.00;102092.47;5123263;55;1141000;-78
2024/02/18 15:16:23;;;;;;;17.93;11.43;;;;;;;5.42;100.00;102085.48;5103457;56;1148182;-79
2024/02/18 15:21:30;;;;;;;25.03;14.07;;;;;;;5.27;100.00;102076.32;5101713;56;1140991;-78
2024/02/18 15:26:37;;;;;;;10.70;7.47;;;;;;;5.17;100.00;102072.27;5217526;55;1140789;-81
2024/02/18 15:31:43;;;;;;;44.83;19.43;;;;;;;5.14;100.00;102060.56;5218241;55;1138496;-81
2024/02/18 15:36:48;;;;;;;47.20;18.67;;;;;;;5.09;100.00;102066.84;5220604;55;1140580;-79
2024/02/18 15:41:56;;;;;;;39.58;19.07;;;;;;;5.07;100.00;102052.45;5241091;55;1141086;-79
2024/02/18 15:47:01;;;;;;;33.73;15.47;;;;;;;5.06;100.00;102038.08;5219324;55;1140858;-78
2024/02/18 15:52:06;;;;;;;40.53;16.47;;;;;;;5.04;100.00;102026.32;5183279;55;1140857;-80
2024/02/18 15:57:12;;;;;;;16.17;8.13;;;;;;;5.00;100.00;102009.44;5153491;55;1140941;-80
2024/02/18 16:02:18;;;;;;;14.28;9.03;;;;;;;4.89;100.00;101999.26;5132646;54;1138765;-77
2024/02/18 16:07:24;;;;;;;18.17;11.03;;;;;;;4.78;100.00;101984.31;5140610;55;1139083;-74
2024/02/18 16:12:30;;;;;;;9.96;6.18;;;;;;;4.66;100.00;101982.93;5111407;55;1140969;-78
2024/02/18 16:17:35;;;;;;;21.25;9.40;;;;;;;4.62;100.00;101980.44;5132449;54;1136465;-86
2024/02/18 16:22:41;;;;;;;12.93;7.47;;;;;;;4.63;100.00;101979.53;5151110;54;1138375;-78
2024/02/18 16:27:46;;;;;;;27.07;13.57;;;;;;;4.58;100.00;101965.28;5132593;55;1138740;-83
2024/02/18 16:32:52;;;;;;;23.20;13.20;;;;;;;4.49;100.00;101963.77;5118653;56;1140403;-79
2024/02/18 16:37:58;;;;;;;16.83;11.23;;;;;;;4.44;100.00;101962.18;5099032;56;1140836;-76
2024/02/18 16:43:03;;;;;;;25.80;13.60;;;;;;;4.41;100.00;101958.37;5079317;56;1140878;-78
2024/02/18 16:48:09;;;;;;;31.33;14.53;;;;;;;4.36;100.00;101937.53;5090956;56;1140894;-77
2024/02/18 16:53:15;;;;;;;42.50;23.10;;;;;;;4.32;100.00;101936.35;5109197;56;1140665;-79
2024/02/18 16:58:20;;;;;;;16.67;7.77;;;;;;;4.28;100.00;101922.96;5078263;56;1141304;-84
2024/02/18 17:03:26;;;;;;;13.90;8.60;;;;;;;4.21;100.00;101919.65;5113230;56;1138725;-80
2024/02/18 17:08:32;;;;;;;10.68;8.53;;;;;;;4.18;100.00;101916.66;5096211;56;1138733;-77
2024/02/18 17:13:38;;;;;;;18.17;7.80;;;;;;;4.18;100.00;101913.19;5106560;56;1138849;-81
2024/02/18 17:18:43;;;;;;;14.67;9.40;;;;;;;4.15;100.00;101902.80;5107587;56;1138810;-81
2024/02/18 17:23:52;;;;;;;16.87;10.97;;;;;;;4.15;100.00;101903.66;5121314;56;1138613;-79
2024/02/18 17:28:58;;;;;;;22.43;13.13;;;;;;;4.19;100.00;101899.19;5101722;55;1140851;-79
2024/02/18 17:34:03;;;;;;;24.73;13.67;;;;;;;4.16;100.00;101882.26;5152456;55;1140895;-75
2024/02/18 17:39:09;;;;;;;15.33;10.43;;;;;;;4.15;100.00;101872.69;5230829;55;1140648;-77
2024/02/18 17:44:15;;;;;;;22.60;13.38;;;;;;;4.12;100.00;101864.49;5108858;55;1140625;-78
2024/02/18 17:49:21;;;;;;;18.67;10.90;;;;;;;4.07;100.00;101861.59;5063374;56;1140914;-77
2024/02/18 17:54:27;;;;;;;26.73;12.55;;;;;;;4.07;100.00;101855.05;5140090;55;1140556;-80
2024/02/18 17:59:33;;;;;;;17.00;8.50;;;;;;;4.09;100.00;101844.94;5060330;56;1140949;-75
2024/02/18 18:04:38;;;;;;;22.70;11.47;;;;;;;4.09;100.00;101834.47;5081628;55;1138723;-79
2024/02/18 18:09:44;;;;;;;19.30;10.03;;;;;;;4.08;100.00;101827.52;5126864;55;1140615;-80
2024/02/18 18:14:50;;;;;;;16.67;9.90;;;;;;;4.03;100.00;101806.30;5152467;56;1140809;-80
2024/02/18 18:19:57;;;;;;;21.50;11.73;;;;;;;3.98;100.00;101799.02;5132455;56;1138485;-77
2024/02/18 18:25:03;;;;;;;20.10;10.27;;;;;;;3.97;100.00;101778.56;5172308;55;1140579;-79
2024/02/18 18:30:09;;;;;;;18.27;9.27;;;;;;;3.91;100.00;101775.27;5195430;55;1140871;-76
2024/02/18 18:35:15;;;;;;;20.90;10.67;;;;;;;3.92;100.00;101769.13;5091806;55;1138820;-78
2024/02/18 18:40:21;;;;;;;19.90;10.15;;;;;;;3.86;100.00;101750.08;5099921;55;1140781;-78
2024/02/18 18:45:27;;;;;;;22.30;8.95;;;;;;;3.84;100.00;101741.86;5154549;55;1141028;-78
2024/02/18 18:50:32;;;;;;;18.52;9.38;;;;;;;3.81;100.00;101732.38;5111622;56;1138760;-79
2024/02/18 18:55:38;;;;;;;21.23;10.13;;;;;;;3.83;100.00;101729.67;5111227;56;1138757;-78
2024/02/18 19:00:43;;;;;;;39.03;17.90;;;;;;;3.79;100.00;101709.77;5109986;56;1140915;-81
2024/02/18 19:05:51;;;;;;;26.73;10.73;;;;;;;3.82;100.00;101704.41;5124142;56;1140858;-80
2024/02/18 19:10:59;;;;;;;19.37;10.43;;;;;;;3.82;100.00;101693.95;5084528;56;1140886;-76
2024/02/18 19:16:05;;;;;;;32.77;14.93;;;;;;;3.82;100.00;101684.34;5043263;55;1140712;-78
2024/02/18 19:21:10;;;;;;;158.63;62.40;;;;;;;3.84;100.00;101679.06;5076632;55;1140967;-78
2024/02/18 19:26:16;;;;;;;152.57;69.03;;;;;;;3.85;100.00;101677.70;5111414;56;1142971;-77
2024/02/18 19:31:22;;;;;;;56.97;30.33;;;;;;;3.83;100.00;101670.34;5123649;56;1142966;-75
2024/02/18 19:36:27;;;;;;;23.63;11.97;;;;;;;3.83;100.00;101662.50;5169018;55;1149662;-80
2024/02/18 19:41:47;;;;;;;66.42;28.12;;;;;;;3.85;100.00;101660.70;5147321;55;1140975;-78
2024/02/18 19:46:53;;;;;;;33.77;15.27;;;;;;;3.89;100.00;101650.55;5123840;56;1140553;-78
2024/02/18 19:52:04;;;;;;;26.97;13.03;;;;;;;3.89;100.00;101641.38;5133342;55;1140724;-77
2024/02/18 19:57:11;;;;;;;29.93;14.77;;;;;;;3.87;100.00;101628.80;5221870;55;1140647;-79
2024/02/18 20:02:19;;;;;;;26.93;14.37;;;;;;;3.87;100.00;101622.70;5209947;55;1140924;-79
2024/02/18 20:07:25;;;;;;;22.07;11.53;;;;;;;3.89;100.00;101616.97;5210369;55;1140935;-79
2024/02/18 20:12:30;;;;;;;28.98;16.27;;;;;;;3.92;100.00;101605.55;5217318;55;1141062;-76
2024/02/18 20:17:37;;;;;;;24.47;11.88;;;;;;;3.92;100.00;101583.31;5201127;55;1140979;-78
2024/02/18 20:22:43;;;;;;;28.57;15.30;;;;;;;3.88;100.00;101580.78;5183552;55;1141157;-80
2024/02/18 20:27:49;;;;;;;36.40;16.42;;;;;;;3.87;100.00;101577.77;5127357;55;1141009;-78
2024/02/18 20:32:55;;;;;;;20.77;10.63;;;;;;;3.87;100.00;101572.53;5153252;55;1141376;-76
2024/02/18 20:38:03;;;;;;;22.23;11.90;;;;;;;3.91;100.00;101574.60;5085567;56;1140991;-78
2024/02/18 20:43:08;;;;;;;36.07;14.87;;;;;;;3.93;100.00;101564.94;5061656;55;1140676;-78
2024/02/18 20:48:15;;;;;;;27.87;13.70;;;;;;;3.94;100.00;101554.88;5132726;56;1140818;-78
2024/02/18 20:53:21;;;;;;;27.15;13.60;;;;;;;3.88;100.00;101540.67;5113104;56;1140833;-80
2024/02/18 20:58:28;;;;;;;37.97;19.73;;;;;;;3.85;100.00;101538.16;5060378;56;1140923;-80
2024/02/18 21:03:34;;;;;;;36.03;17.25;;;;;;;3.86;100.00;101535.49;5080271;56;1140924;-80
2024/02/18 21:08:40;;;;;;;39.97;18.80;;;;;;;3.89;100.00;101528.00;5150924;55;1140926;-80
2024/02/18 21:13:45;;;;;;;34.80;18.10;;;;;;;3.87;100.00;101511.48;5210415;55;1140591;-81
2024/02/18 21:18:51;;;;;;;24.63;11.03;;;;;;;3.82;100.00;101510.33;5210910;55;1141191;-81
2024/02/18 21:23:57;;;;;;;34.17;13.90;;;;;;;3.84;100.00;101498.05;5231001;55;1140789;-81
2024/02/18 21:29:03;;;;;;;27.95;13.93;;;;;;;3.89;100.00;101491.36;5164729;55;1140611;-81
2024/02/18 21:34:13;;;;;;;36.23;15.78;;;;;;;3.91;100.00;101485.63;5113385;56;1140712;-81
2024/02/18 21:39:18;;;;;;;39.17;17.17;;;;;;;3.90;100.00;101472.13;5035136;57;1140670;-81
2024/02/18 21:44:24;;;;;;;27.77;13.93;;;;;;;3.84;100.00;101466.65;5015200;57;1140797;-81
2024/02/18 21:49:29;;;;;;;22.37;12.25;;;;;;;3.85;100.00;101464.89;5026517;56;1140642;-80
2024/02/18 21:54:35;;;;;;;34.48;15.72;;;;;;;3.89;100.00;101456.89;5060115;56;1140684;-80
2024/02/18 21:59:40;;;;;;;30.12;14.80;;;;;;;3.90;100.00;101431.57;5099440;56;1141061;-80
2024/02/18 22:04:46;;;;;;;29.72;15.85;;;;;;;3.88;100.00;101422.91;5097943;55;1140958;-80
2024/02/18 22:09:52;;;;;;;30.70;14.47;;;;;;;3.81;100.00;101405.75;5098736;56;1140774;-80
2024/02/18 22:14:57;;;;;;;26.03;13.43;;;;;;;3.86;100.00;101399.87;5118965;56;1140999;-80
2024/02/18 22:20:03;;;;;;;33.93;16.27;;;;;;;3.88;100.00;101380.59;5098567;56;1140909;-80
2024/02/18 22:25:10;;;;;;;36.73;16.27;;;;;;;3.87;100.00;101384.12;5098645;56;1140854;-80
2024/02/18 22:30:17;;;;;;;38.73;15.97;;;;;;;3.87;100.00;101366.25;5111043;56;1140318;-80
2024/02/18 22:35:23;;;;;;;32.30;14.17;;;;;;;3.85;100.00;101369.37;5097962;55;1140532;-80
2024/02/18 22:40:29;;;;;;;29.77;14.23;;;;;;;3.87;100.00;101350.10;5094026;56;1140461;-80
2024/02/18 22:45:37;;;;;;;32.58;14.58;;;;;;;3.90;100.00;101342.59;5108244;56;1142881;-80
2024/02/18 22:50:56;;;;;;;;;;;;;;;;;;;;;
2024/02/18 22:55:56;;;;;;;39.70;16.77;;;;;;;3.91;100.00;101329.91;4929512;55;1141011;-80
2024/02/18 23:01:28;;;;;;;;;;;;;;;;;;;;;
2024/02/18 23:06:53;;;;;;;;;;;;;;;;;;;;;